Latest Weather Observations for Biloela

IDQ60801

Issued at 5:32 pm EST Friday 6 March 2015 (issued every 30 minutes, with the page automatically refreshed every 10 minutes)

About weather observations | Map of weather stations | Latest weather observations for QLD | Other Formats
Station Details ID: 039089 Name: THANGOOL AIRPORT Lat: -24.49 Lon: 150.57 Height: 193.1 m
Data from the previous 72 hours. | See also: Recent months at Biloela
Date/Time
EST
Temp
°C
App
Temp
°C
Dew
Point
Rel
Hum
%
Delta-T
°C
Wind Press
QNH
hPa
Press
MSL
hPa
Rain
since 9 am
mm
Dir
 
Spd
km/h
Gust
km/h
Spd
kts
Gust
kts
06/05:30pm 31.2 31.9 16.0 40 9.6 SE 7 15 4 8 1005.4 - 0.0
06/05:00pm 31.2 32.3 17.1 42 9.0 SE 7 13 4 7 1005.6 - 0.0
06/04:30pm 32.1 32.3 16.8 40 9.8 S 11 15 6 8 1005.4 - 0.0
06/04:00pm 32.1 32.0 16.0 38 10.1 ESE 11 17 6 9 1005.4 - 0.0
06/03:30pm 32.1 31.7 15.1 35 10.6 SE 11 19 6 10 1005.6 - 0.0
06/03:00pm 32.4 31.3 13.1 31 11.7 S 11 17 6 9 1005.8 1004.8 0.0
06/02:30pm 31.8 30.8 13.5 32 11.1 SSE 11 20 6 11 1006.1 - 0.0
06/02:00pm 32.4 31.6 14.1 33 11.2 SE 11 15 6 8 1006.4 - 0.0
06/01:30pm 32.1 31.2 13.8 33 11.2 S 11 19 6 10 1006.8 - 0.0
06/01:00pm 31.6 31.3 15.5 37 10.1 S 11 19 6 10 1007.2 - 0.0
06/12:30pm 32.1 32.1 15.1 35 10.6 ESE 9 15 5 8 1007.6 - 0.0
06/12:00pm 31.6 31.3 15.5 37 10.1 ESE 11 17 6 9 1008.0 1007.0 0.0
06/11:30am 31.1 30.2 13.8 34 10.5 SSE 11 19 6 10 1008.5 - 0.0
06/11:00am 30.5 30.8 16.1 41 9.0 SE 9 15 5 8 1008.6 - 0.0
06/10:30am 29.7 30.3 16.8 45 8.2 SSE 9 13 5 7 1008.9 - 0.0
06/10:00am 28.8 27.4 14.6 42 8.7 ESE 15 22 8 12 1009.0 - 0.0
06/09:30am 28.6 27.8 14.1 41 8.8 ESE 11 15 6 8 1009.1 - 0.0
06/09:00am 27.5 26.5 13.4 41 8.4 ESE 11 17 6 9 1009.3 1008.3 0.0
06/08:30am 26.7 24.5 10.8 37 9.0 ESE 13 20 7 11 1008.9 - 0.0
06/08:00am 24.3 23.0 11.3 44 7.4 SSE 9 13 5 7 1009.0 - 0.0
06/07:30am 22.8 22.1 12.1 51 6.1 ESE 7 11 4 6 1009.0 - 0.0
06/07:00am 21.6 21.5 13.8 61 4.6 ESE 7 13 4 7 1008.9 - 0.0
06/06:30am 19.1 18.9 13.7 71 3.1 SE 7 13 4 7 1008.7 - 0.0
06/06:00am 18.6 19.3 16.2 86 1.4 SSE 7 9 4 5 1008.3 1007.3 0.0
06/05:30am 18.4 20.8 16.9 91 0.9 CALM 0 0 0 0 1008.2 - 0.0
06/05:00am 19.5 20.6 18.0 91 0.9 ESE 9 11 5 6 1007.8 - 0.0
06/04:30am 19.3 21.4 18.1 93 0.7 SE 4 7 2 4 1007.6 - 0.0
06/04:00am 19.3 20.8 18.0 92 0.8 ESE 7 11 4 6 1007.4 - 0.0
06/03:30am 20.0 22.0 18.7 92 0.8 ESE 6 7 3 4 1007.2 - 0.0
06/03:00am 20.3 22.3 19.1 93 0.8 E 7 9 4 5 1007.2 1006.1 0.0
06/02:30am 20.9 24.4 19.6 92 0.8 CALM 0 0 0 0 1007.2 - 0.0
06/02:00am 20.8 23.9 18.7 88 1.3 CALM 0 0 0 0 1007.2 - 0.0
06/01:30am 21.6 24.7 19.5 88 1.3 E 2 6 1 3 1007.3 - 0.0
06/01:00am 22.4 24.8 20.1 87 1.5 SE 7 9 4 5 1007.5 - 0.0
06/12:30am 22.5 24.8 19.9 85 1.7 ENE 7 9 4 5 1007.5 - 0.0
06/12:00am 23.1 25.5 20.1 83 2.0 ESE 7 9 4 5 1007.7 1006.7 0.0
 
Date/Time
EST
Temp
°C
App
Temp
°C
Dew
Point
Rel
Hum
%
Delta-T
°C
Wind Press
QNH
hPa
Press
MSL
hPa
Rain
since 9 am
mm
Dir
 
Spd
km/h
Gust
km/h
Spd
kts
Gust
kts
05/11:30pm 23.3 25.4 20.2 83 2.0 E 9 11 5 6 1007.6 - 0.0
05/11:00pm 23.1 25.2 20.1 83 2.0 E 9 9 5 5 1007.6 - 0.0
05/10:30pm 23.4 26.0 20.1 82 2.1 ESE 6 7 3 4 1007.3 - 0.0
05/10:00pm 24.0 26.8 20.5 81 2.3 E 6 7 3 4 1007.2 - 0.0
05/09:30pm 24.0 26.5 19.9 78 2.7 E 6 7 3 4 1006.9 - 0.0
05/09:00pm 24.9 28.7 20.2 75 3.1 CALM 0 0 0 0 1006.9 1005.9 0.0
05/08:30pm 25.9 29.9 20.5 72 3.6 CALM 0 0 0 0 1006.8 - 0.0
05/08:00pm 26.3 29.0 20.2 69 4.0 SW 6 7 3 4 1006.7 - 0.0
05/07:30pm 28.4 30.6 19.3 57 5.9 N 6 7 3 4 1006.5 - 0.0
05/07:00pm 29.3 31.5 19.6 56 6.4 N 7 9 4 5 1006.4 - 0.0
05/06:30pm 30.0 31.6 20.0 55 6.6 N 11 13 6 7 1006.1 - 0.0
05/06:00pm 31.8 33.0 19.1 47 8.4 NNW 11 13 6 7 1006.0 1005.0 0.0
05/05:30pm 32.7 34.1 19.6 46 8.7 NNW 11 15 6 8 1006.0 - 0.0
05/05:00pm 33.1 34.5 20.3 47 8.6 NNW 13 17 7 9 1006.1 - 0.0
05/04:30pm 33.0 34.2 19.1 43 9.2 NNW 11 20 6 11 1006.2 - 0.0
05/04:00pm 33.7 36.5 20.8 46 8.7 WNW 7 15 4 8 1006.5 - 0.0
05/03:30pm 33.4 34.9 20.5 46 8.7 NW 13 19 7 10 1006.8 - 0.0
05/03:00pm 33.3 34.9 20.8 48 8.5 WNW 13 20 7 11 1006.9 1005.9 0.0
05/02:30pm 33.2 35.3 21.0 48 8.3 W 11 17 6 9 1007.4 - 0.0
05/02:00pm 32.6 34.8 21.8 53 7.4 NW 13 20 7 11 1007.8 - 0.0
05/01:30pm 32.2 33.0 19.8 48 8.2 NW 15 22 8 12 1008.5 - 0.0
05/01:00pm 32.0 33.7 20.9 52 7.5 NNW 13 24 7 13 1009.0 - 0.0
05/12:30pm 31.1 32.7 20.7 54 7.0 WNW 13 20 7 11 1009.6 - 0.0
05/12:00pm 30.5 32.5 20.7 55 6.6 NW 11 19 6 10 1010.1 1009.1 0.0
05/11:30am 29.9 32.6 21.3 60 5.8 NNW 9 17 5 9 1010.7 - 0.0
05/11:00am 29.1 30.7 20.8 61 5.5 NW 13 22 7 12 1011.2 - 0.0
05/10:30am 28.2 30.3 21.0 65 4.8 NW 11 19 6 10 1011.5 - 0.0
05/10:00am 28.0 29.4 21.1 66 4.6 NNW 15 20 8 11 1011.9 - 0.0
05/09:30am 27.0 28.9 21.3 71 3.8 NNW 13 20 7 11 1012.0 - 0.0
05/09:00am 26.0 27.8 21.2 75 3.2 NW 13 17 7 9 1012.1 1011.2 0.0
05/08:30am 25.1 27.2 21.0 78 2.7 WNW 11 15 6 8 1011.9 - 0.0
05/08:00am 23.8 26.1 20.7 83 2.0 NW 9 13 5 7 1012.0 - 0.0
05/07:30am 22.8 26.7 20.3 86 1.6 CALM 0 4 0 2 1011.8 - 0.0
05/07:00am 21.2 23.8 20.0 93 0.8 E 6 7 3 4 1011.6 - 0.0
05/06:30am 19.1 22.0 18.3 95 0.5 CALM 0 0 0 0 1011.4 - 0.0
05/06:01am 18.7 21.5 17.9 95 0.5 CALM 0 0 0 0 1011.1 - 0.0
05/06:00am 18.7 21.5 17.9 95 0.5 CALM 0 0 0 0 1011.1 1010.1 0.0
05/05:30am 18.6 20.1 17.6 94 0.6 SSE 6 6 3 3 1010.8 - 0.0
05/05:00am 18.9 21.8 18.1 95 0.5 CALM 0 0 0 0 1010.5 - 0.0
05/04:40am 18.7 21.4 17.7 94 0.6 CALM 0 0 0 0 1010.5 - 0.0
05/04:30am 18.6 21.2 17.4 93 0.7 CALM 0 0 0 0 1010.5 - 0.0
05/04:03am 19.4 22.4 18.4 94 0.6 CALM 0 0 0 0 1010.6 - 0.0
05/04:00am 19.2 22.1 18.2 94 0.6 CALM 0 0 0 0 1010.7 - 0.0
05/03:30am 18.9 21.5 17.4 91 0.9 CALM 0 0 0 0 1010.7 - 0.0
05/03:27am 19.0 21.7 17.7 92 0.8 CALM 0 0 0 0 1010.7 - 0.0
05/03:00am 19.6 22.5 18.3 92 0.8 CALM 0 0 0 0 1010.8 1009.8 0.0
05/02:57am 19.5 22.4 18.2 92 0.8 CALM 0 0 0 0 1010.8 - 0.0
05/02:30am 19.6 22.5 18.1 91 0.9 CALM 0 0 0 0 1010.9 - 0.0
05/02:00am 19.8 22.7 18.1 90 1.1 CALM 0 0 0 0 1011.1 - 0.0
05/01:30am 20.1 23.2 18.6 91 0.9 CALM 0 0 0 0 1011.5 - 0.0
05/01:00am 20.4 23.3 18.3 88 1.3 CALM 0 0 0 0 1011.6 - 0.0
05/12:30am 21.0 24.2 18.8 87 1.4 CALM 0 0 0 0 1012.1 - 0.0
05/12:00am 21.6 25.1 19.5 88 1.3 CALM 0 0 0 0 1012.5 1011.5 0.0
 
Date/Time
EST
Temp
°C
App
Temp
°C
Dew
Point
Rel
Hum
%
Delta-T
°C
Wind Press
QNH
hPa
Press
MSL
hPa
Rain
since 9 am
mm
Dir
 
Spd
km/h
Gust
km/h
Spd
kts
Gust
kts
04/11:30pm 22.1 25.7 19.8 87 1.5 CALM 0 6 0 3 1012.9 - 0.0
04/11:00pm 22.7 26.3 19.7 83 1.9 CALM 0 0 0 0 1013.2 - 0.0
04/10:30pm 23.2 26.3 19.6 80 2.3 N 2 6 1 3 1013.3 - 0.0
04/10:00pm 24.2 27.0 19.7 76 2.9 N 4 7 2 4 1013.1 - 0.0
04/09:30pm 25.3 28.4 21.0 77 2.9 NE 6 11 3 6 1012.9 - 0.0
04/09:00pm 24.4 27.3 19.0 72 3.5 SE 2 9 1 5 1012.7 1011.7 0.0
04/08:30pm 26.5 28.7 20.3 68 4.1 WSW 9 19 5 10 1012.7 - 0.0
04/08:00pm 26.4 27.7 19.3 65 4.6 ENE 11 17 6 9 1012.0 - 0.0
04/07:30pm 27.1 28.4 19.2 62 5.1 NNE 11 15 6 8 1011.8 - 0.0
04/07:00pm 27.8 29.1 18.5 57 6.0 NNE 9 15 5 8 1011.3 - 0.0
04/06:30pm 28.9 30.3 18.7 54 6.6 NNE 9 15 5 8 1011.0 - 0.0
04/06:00pm 30.4 30.4 18.2 48 7.9 N 15 19 8 10 1010.8 1009.8 0.0
04/05:30pm 32.0 32.8 15.9 38 10.1 E 6 9 3 5 1010.5 - 0.0
04/05:00pm 32.8 35.2 17.0 38 10.1 CALM 0 4 0 2 1010.6 - 0.0
04/04:30pm 32.7 33.4 15.7 36 10.7 ESE 6 9 3 5 1010.7 - 0.0
04/04:00pm 32.8 34.0 14.9 34 11.1 NNE 2 6 1 3 1010.7 - 0.0
04/03:30pm 33.3 34.6 17.0 37 10.5 NW 6 11 3 6 1010.7 - 0.0
04/03:00pm 32.5 33.5 16.8 39 10.0 NNW 7 15 4 8 1011.0 1010.0 0.0
04/02:30pm 32.4 33.3 16.7 39 10.0 W 7 13 4 7 1011.1 - 0.0
04/02:00pm 31.8 32.4 17.7 43 9.1 N 11 20 6 11 1011.7 - 0.0
04/01:30pm 31.6 32.8 18.2 44 8.7 SSW 9 15 5 8 1012.1 - 0.0
04/01:00pm 31.2 32.0 18.2 46 8.4 SW 11 17 6 9 1012.5 - 0.0
04/12:30pm 30.3 30.6 17.0 44 8.5 NW 11 15 6 8 1013.0 - 0.0
04/12:00pm 30.2 31.7 18.0 48 7.9 S 7 17 4 9 1013.3 1012.3 0.0
04/11:30am 30.0 31.0 17.8 48 7.8 NW 9 13 5 7 1013.5 - 0.0
04/11:00am 29.3 30.4 18.1 51 7.2 W 9 15 5 8 1014.0 - 0.0
04/10:30am 28.8 30.5 18.0 52 6.9 ESE 6 13 3 7 1014.5 - 0.0
04/10:00am 28.4 29.3 18.5 55 6.4 NE 11 15 6 8 1014.6 - 0.0
04/09:30am 26.8 28.0 17.3 56 6.0 ESE 7 11 4 6 1014.7 - 0.0
04/09:00am 25.8 28.4 17.4 59 5.3 CALM 0 6 0 3 1014.7 1013.7 0.0
04/08:30am 24.3 26.1 18.2 68 3.9 NE 6 7 3 4 1014.8 - 0.0
04/08:00am 23.3 24.9 19.2 78 2.6 E 9 13 5 7 1014.6 - 0.0
04/07:30am 21.8 23.5 18.4 81 2.1 ENE 7 17 4 9 1014.4 - 0.0
04/07:00am 19.8 22.1 17.6 87 1.4 E 2 6 1 3 1014.2 - 0.0
04/06:30am 19.0 20.0 17.8 93 0.7 ESE 9 13 5 7 1014.0 - 0.0
04/06:00am 18.3 19.1 17.3 94 0.6 ESE 9 13 5 7 1013.7 1012.7 0.0
04/05:30am 16.4 16.7 15.1 92 0.8 E 7 9 4 5 1013.8 - 0.0
04/05:00am 16.4 16.8 15.3 93 0.6 ESE 7 9 4 5 1013.7 - 0.0
04/04:48am 16.8 18.7 15.8 94 0.6 CALM 0 7 0 4 1013.7 - 0.0
04/04:30am 16.7 18.2 15.7 94 0.6 ESE 2 6 1 3 1013.7 - 0.0
04/04:29am 16.8 18.3 15.8 94 0.6 E 2 6 1 3 1013.7 - 0.0
04/04:00am 16.9 18.4 15.6 92 0.8 SE 2 7 1 4 1013.7 - 0.0
04/03:30am 17.7 18.8 16.6 93 0.7 ESE 6 7 3 4 1013.4 - 0.0
04/03:00am 18.5 19.7 17.3 93 0.7 ESE 7 9 4 5 1013.8 1012.8 0.0
04/02:30am 18.3 19.5 16.8 91 0.9 ENE 6 7 3 4 1014.0 - 0.0
04/02:00am 18.2 20.4 16.4 89 1.1 CALM 0 6 0 3 1014.1 - 0.0
04/01:30am 19.4 21.0 17.9 91 0.9 SSE 6 9 3 5 1014.4 - 0.0
04/01:00am 19.1 20.5 17.8 92 0.8 SE 7 9 4 5 1014.7 - 0.0
04/12:30am 19.4 22.0 17.5 89 1.2 CALM 0 0 0 0 1014.9 - 0.0
04/12:00am 19.3 21.7 17.1 87 1.3 CALM 0 0 0 0 1015.1 1014.1 0.0
 
Date/Time
EST
Temp
°C
App
Temp
°C
Dew
Point
Rel
Hum
%
Delta-T
°C
Wind Press
QNH
hPa
Press
MSL
hPa
Rain
since 9 am
mm
Dir
 
Spd
km/h
Gust
km/h
Spd
kts
Gust
kts
03/11:30pm 19.9 22.5 17.5 86 1.5 CALM 0 0 0 0 1015.2 - 0.0
03/11:00pm 20.5 23.2 17.7 84 1.7 CALM 0 0 0 0 1015.2 - 0.0
03/10:30pm 21.0 23.7 17.8 82 2.0 CALM 0 0 0 0 1015.0 - 0.0
03/10:00pm 21.5 24.4 18.3 82 2.0 CALM 0 0 0 0 1014.9 - 0.0
03/09:30pm 22.0 23.8 18.2 79 2.4 SE 6 7 3 4 1014.6 - 0.0
03/09:00pm 22.1 23.6 17.5 75 2.9 E 6 9 3 5 1014.3 1013.3 0.0
03/08:30pm 22.7 23.7 16.9 70 3.6 ENE 7 7 4 4 1014.0 - 0.0
03/08:00pm 23.3 25.6 16.8 67 4.0 CALM 0 2 0 1 1013.5 - 0.0
03/07:30pm 24.0 25.1 16.5 63 4.6 ESE 6 7 3 4 1013.2 - 0.0
03/07:00pm 26.2 26.6 16.2 54 6.2 E 9 13 5 7 1012.7 - 0.0
03/06:30pm 27.7 27.9 15.7 48 7.4 ESE 9 15 5 8 1012.5 - 0.0
03/06:00pm 29.2 29.1 16.0 44 8.2 ESE 11 20 6 11 1012.1 1011.2 0.0

Other Formats:

Comma delimited format used in spreadsheet applications
http://www.bom.gov.au/fwo/IDQ60801/IDQ60801.94376.axf

JavaScript Object Notation format (JSON) in row-major order
http://www.bom.gov.au/fwo/IDQ60801/IDQ60801.94376.json